Time;durP1;ratioP1;P1;durP2;ratioP2;P2;SDS_P1;SDS_P2;PMS_P1;PMS_P2;Temp;Humidity;BMP_temperature;BMP_pressure;BME280_temperature;BME280_humidity;BME280_pressure;Samples;Min_cycle;Max_cycle;Signal;HPM_P1;HPM_P2
2022/04/13 00:01:58;;;;;;;;;;;;;;;14.94;72.60;99902.50;4432837;32;19969;-68
2022/04/13 00:04:23;;;;;;;;;;;;;;;15.06;72.39;99909.94;4430678;32;20009;-68
2022/04/13 00:06:49;;;;;;;;;;;;;;;14.83;73.33;99904.38;4429974;32;20007;-68
2022/04/13 00:09:15;;;;;;;;;;;;;;;14.54;73.94;99904.34;4429697;32;19997;-68
2022/04/13 00:11:40;;;;;;;;;;;;;;;14.94;72.32;99908.19;4425802;32;20351;-68
2022/04/13 00:14:06;;;;;;;;;;;;;;;14.73;72.67;99908.56;4431361;32;20027;-68
2022/04/13 00:16:33;;;;;;;;;;;;;;;14.62;72.56;99909.16;4429912;32;19984;-68
2022/04/13 00:18:59;;;;;;;;;;;;;;;14.59;72.82;99915.00;4429039;32;20019;-68
2022/04/13 00:21:24;;;;;;;;;;;;;;;14.61;72.91;99920.97;4426812;32;19950;-68
2022/04/13 00:23:50;;;;;;;;;;;;;;;14.58;73.08;99922.72;4426504;32;19995;-68
2022/04/13 00:26:15;;;;;;;;;;;;;;;14.62;72.76;99922.50;4432937;32;19989;-68
2022/04/13 00:28:41;;;;;;;;;;;;;;;14.67;72.29;99928.28;4431904;32;20286;-68
2022/04/13 00:31:08;;;;;;;;;;;;;;;14.56;73.00;99919.56;4425302;32;19988;-68
2022/04/13 00:33:34;;;;;;;;;;;;;;;14.59;72.57;99924.28;4420559;32;20335;-68
2022/04/13 00:35:59;;;;;;;;;;;;;;;14.71;72.03;99923.22;4423514;32;19953;-68
2022/04/13 00:38:25;;;;;;;;;;;;;;;14.74;71.95;99924.28;4421157;32;20378;-68
2022/04/13 00:40:51;;;;;;;;;;;;;;;14.67;72.61;99927.50;4421227;32;20366;-68
2022/04/13 00:43:16;;;;;;;;;;;;;;;14.63;72.09;99929.75;4423929;32;19982;-68
2022/04/13 00:45:46;;;;;;;;;;;;;;;14.61;72.08;99932.28;4419785;32;20003;-68
2022/04/13 00:48:18;;;;;;;;;;;;;;;14.29;73.65;99933.94;4423638;32;20062;-68
2022/04/13 00:50:44;;;;;;;;;;;;;;;14.39;73.22;99935.44;4422907;32;20001;-68
2022/04/13 00:53:10;;;;;;;;;;;;;;;14.49;73.01;99936.94;4418657;32;19953;-68
2022/04/13 00:55:38;;;;;;;;;;;;;;;14.24;73.05;99939.50;4421410;32;19988;-68
2022/04/13 00:58:05;;;;;;;;;;;;;;;14.23;73.29;99947.19;4418549;32;20331;-68
2022/04/13 01:00:34;;;;;;;;;;;;;;;14.27;73.58;99959.16;4421558;32;20032;-68
2022/04/13 01:03:01;;;;;;;;;;;;;;;14.63;71.62;99953.16;4423635;32;19953;-68
2022/04/13 01:05:26;;;;;;;;;;;;;;;14.17;73.26;99951.94;4423356;32;19965;-68
2022/04/13 01:07:52;;;;;;;;;;;;;;;14.25;73.56;99969.34;4420768;32;19949;-68
2022/04/13 01:10:18;;;;;;;;;;;;;;;14.47;72.70;99967.78;4422174;32;20010;-68
2022/04/13 01:12:44;;;;;;;;;;;;;;;14.46;72.43;99973.94;4419931;32;19969;-68
2022/04/13 01:15:10;;;;;;;;;;;;;;;14.41;72.40;99980.25;4419336;32;19998;-68
2022/04/13 01:17:39;;;;;;;;;;;;;;;14.74;71.17;99976.06;4423609;32;19949;-68
2022/04/13 01:20:06;;;;;;;;;;;;;;;14.44;72.29;99974.41;4423190;32;19953;-68
2022/04/13 01:22:31;;;;;;;;;;;;;;;14.45;72.21;99969.53;4420738;32;19968;-68
2022/04/13 01:24:57;;;;;;;;;;;;;;;14.55;71.52;99974.66;4420423;32;19950;-68
2022/04/13 01:27:22;;;;;;;;;;;;;;;14.33;72.41;99971.34;4417854;32;20279;-68
2022/04/13 01:29:49;;;;;;;;;;;;;;;14.32;71.94;99974.66;4417234;32;20040;-68
2022/04/13 01:32:14;;;;;;;;;;;;;;;14.67;71.31;99972.81;4417329;32;19965;-68
2022/04/13 01:34:48;;;;;;;;;;;;;;;14.72;70.89;99977.78;4416720;32;20603;-68
2022/04/13 01:37:14;;;;;;;;;;;;;;;14.79;70.52;99981.03;4420867;32;19949;-68
2022/04/13 01:39:39;;;;;;;;;;;;;;;14.78;70.74;99976.66;4415453;32;19968;-68
2022/04/13 01:42:06;;;;;;;;;;;;;;;14.56;71.41;99989.56;4421460;32;19961;-68
2022/04/13 01:44:31;;;;;;;;;;;;;;;14.49;71.67;99975.78;4418380;32;19985;-68
2022/04/13 01:46:57;;;;;;;;;;;;;;;14.42;72.18;99984.66;4423298;32;19961;-68
2022/04/13 01:49:23;;;;;;;;;;;;;;;14.39;72.52;99980.72;4403983;32;20087;-68
2022/04/13 01:51:48;;;;;;;;;;;;;;;14.34;72.54;99980.63;4419910;32;19991;-68
2022/04/13 01:54:14;;;;;;;;;;;;;;;14.42;72.12;99990.31;4421743;32;20365;-68
2022/04/13 01:56:40;;;;;;;;;;;;;;;14.38;72.59;99984.84;4420912;32;19949;-68
2022/04/13 01:59:07;;;;;;;;;;;;;;;14.41;72.45;99992.38;4421104;32;19972;-68
2022/04/13 02:01:34;;;;;;;;;;;;;;;14.37;72.59;99994.59;4420592;32;19986;-68
2022/04/13 02:04:00;;;;;;;;;;;;;;;14.53;72.22;99994.16;4416604;32;19954;-68
2022/04/13 02:06:26;;;;;;;;;;;;;;;14.22;73.03;99996.56;4421606;32;19949;-68
2022/04/13 02:08:53;;;;;;;;;;;;;;;14.19;73.34;99991.84;4419127;32;20064;-68
2022/04/13 02:11:18;;;;;;;;;;;;;;;14.39;72.49;99994.88;4421573;32;19949;-68
2022/04/13 02:13:44;;;;;;;;;;;;;;;14.51;72.32;99998.75;4415445;32;19963;-68
2022/04/13 02:16:09;;;;;;;;;;;;;;;14.61;71.85;99994.56;4419044;32;20322;-68
2022/04/13 02:18:35;;;;;;;;;;;;;;;14.61;71.60;99995.38;4418456;32;19953;-68
2022/04/13 02:21:01;;;;;;;;;;;;;;;14.68;71.43;99997.03;4420551;32;20036;-68
2022/04/13 02:23:27;;;;;;;;;;;;;;;14.75;71.14;99999.47;4422660;32;19957;-68
2022/04/13 02:25:53;;;;;;;;;;;;;;;15.01;70.57;100006.97;4418662;32;20008;-68
2022/04/13 02:28:18;;;;;;;;;;;;;;;15.07;70.19;99995.75;4416841;32;20386;-68
2022/04/13 02:30:44;;;;;;;;;;;;;;;15.15;69.78;99994.06;4418727;32;20446;-68
2022/04/13 02:33:09;;;;;;;;;;;;;;;15.38;68.90;99996.06;4417278;32;20335;-68
2022/04/13 02:35:35;;;;;;;;;;;;;;;15.34;69.01;99998.31;4418553;32;20000;-69
2022/04/13 02:38:00;;;;;;;;;;;;;;;15.28;68.78;100003.09;4421286;32;19957;-69
2022/04/13 02:40:26;;;;;;;;;;;;;;;15.20;69.25;100002.69;4419120;32;19996;-68
2022/04/13 02:42:52;;;;;;;;;;;;;;;15.16;69.51;100002.09;4418583;32;19997;-68
2022/04/13 02:45:17;;;;;;;;;;;;;;;15.21;69.32;100004.25;4417284;32;20423;-68
2022/04/13 02:47:43;;;;;;;;;;;;;;;15.20;69.38;100008.34;4415108;32;19977;-68
2022/04/13 02:50:09;;;;;;;;;;;;;;;15.16;69.63;100010.59;4416385;32;19964;-69
2022/04/13 02:52:34;;;;;;;;;;;;;;;15.12;69.29;100014.88;4420094;32;19989;-68
2022/04/13 02:55:00;;;;;;;;;;;;;;;15.00;70.26;100013.13;4414631;32;20151;-68
2022/04/13 02:57:26;;;;;;;;;;;;;;;15.09;69.77;100015.84;4418821;32;20276;-68
2022/04/13 02:59:51;;;;;;;;;;;;;;;14.87;69.81;100015.44;4420205;32;19953;-68
2022/04/13 03:02:17;;;;;;;;;;;;;;;14.94;70.01;100027.16;4420420;32;20306;-68
2022/04/13 03:04:45;;;;;;;;;;;;;;;14.84;70.26;100019.22;4416143;32;20000;-68
2022/04/13 03:07:11;;;;;;;;;;;;;;;14.76;70.41;100020.88;4415553;32;20284;-68
2022/04/13 03:09:38;;;;;;;;;;;;;;;14.81;70.26;100025.88;4404138;32;20493;-68
2022/04/13 03:12:04;;;;;;;;;;;;;;;14.77;70.47;100020.41;4408161;32;20011;-68
2022/04/13 03:14:29;;;;;;;;;;;;;;;14.72;70.75;100025.94;4414455;32;20647;-68
2022/04/13 03:16:55;;;;;;;;;;;;;;;15.11;69.04;100019.78;4419464;32;19958;-68
2022/04/13 03:19:20;;;;;;;;;;;;;;;14.89;69.80;100021.41;4423182;32;19968;-68
2022/04/13 03:21:51;;;;;;;;;;;;;;;14.80;70.22;100018.66;4414145;32;20264;-68
2022/04/13 03:24:17;;;;;;;;;;;;;;;14.84;69.69;100028.53;4416887;32;20342;-68
2022/04/13 03:26:43;;;;;;;;;;;;;;;14.66;70.63;100028.66;4415979;32;19985;-68
2022/04/13 03:29:09;;;;;;;;;;;;;;;14.78;70.29;100032.50;4419006;32;19950;-68
2022/04/13 03:31:35;;;;;;;;;;;;;;;14.72;70.64;100032.41;4418383;32;19954;-68
2022/04/13 03:34:00;;;;;;;;;;;;;;;14.87;69.96;100040.94;4415041;32;19989;-68
2022/04/13 03:36:26;;;;;;;;;;;;;;;15.05;69.40;100032.28;4421091;32;19962;-68
2022/04/13 03:38:52;;;;;;;;;;;;;;;15.02;69.06;100041.75;4422664;32;19972;-68
2022/04/13 03:41:18;;;;;;;;;;;;;;;15.03;68.95;100032.00;4420902;32;19957;-68
2022/04/13 03:43:43;;;;;;;;;;;;;;;15.00;68.51;100032.97;4403736;32;20008;-68
2022/04/13 03:46:09;;;;;;;;;;;;;;;14.88;68.92;100023.44;4421018;32;20417;-68
2022/04/13 03:48:34;;;;;;;;;;;;;;;14.90;69.18;100028.62;4424932;32;19958;-68
2022/04/13 03:51:00;;;;;;;;;;;;;;;14.89;69.60;100027.06;4412804;32;20001;-68
2022/04/13 03:53:26;;;;;;;;;;;;;;;15.09;68.58;100030.03;4403700;32;20001;-68
2022/04/13 03:55:51;;;;;;;;;;;;;;;15.21;68.19;100026.91;4416168;32;19969;-68
2022/04/13 03:58:17;;;;;;;;;;;;;;;15.26;68.35;100033.97;4414489;32;20005;-68
2022/04/13 04:00:43;;;;;;;;;;;;;;;15.03;68.89;100034.81;4401681;32;20445;-68
2022/04/13 04:03:09;;;;;;;;;;;;;;;15.06;68.42;100031.00;4420012;32;19996;-68
2022/04/13 04:05:36;;;;;;;;;;;;;;;14.61;69.64;100028.56;4415026;32;19953;-68
2022/04/13 04:08:01;;;;;;;;;;;;;;;14.73;69.87;100041.69;4422378;32;19958;-68
2022/04/13 04:10:28;;;;;;;;;;;;;;;14.86;69.23;100033.69;4422528;32;20312;-68
2022/04/13 04:12:55;;;;;;;;;;;;;;;14.52;70.02;100037.09;4419104;32;19994;-68
2022/04/13 04:15:21;;;;;;;;;;;;;;;14.65;69.88;100037.63;4415959;32;20856;-68
2022/04/13 04:17:47;;;;;;;;;;;;;;;14.78;69.80;100038.16;4410214;32;20017;-68
2022/04/13 04:20:13;;;;;;;;;;;;;;;15.00;69.18;100041.47;4418935;32;20055;-68
2022/04/13 04:22:39;;;;;;;;;;;;;;;15.41;67.69;100043.28;4419727;32;19993;-68
2022/04/13 04:25:06;;;;;;;;;;;;;;;15.39;67.72;100057.16;4407843;32;19969;-68
2022/04/13 04:27:32;;;;;;;;;;;;;;;15.60;66.19;100047.50;4425235;32;20032;-68
2022/04/13 04:29:59;;;;;;;;;;;;;;;15.53;66.20;100056.41;4419568;32;19953;-68
2022/04/13 04:32:25;;;;;;;;;;;;;;;15.38;66.55;100052.78;4423639;32;20417;-68
2022/04/13 04:34:51;;;;;;;;;;;;;;;15.24;66.39;100057.13;4419520;32;20288;-68
2022/04/13 04:37:17;;;;;;;;;;;;;;;15.29;66.17;100061.34;4418717;32;19984;-68
2022/04/13 04:39:43;;;;;;;;;;;;;;;15.05;67.13;100058.56;4421123;32;20374;-69
2022/04/13 04:42:08;;;;;;;;;;;;;;;14.90;67.86;100065.44;4419692;32;20014;-68
2022/04/13 04:44:34;;;;;;;;;;;;;;;14.89;67.77;100059.03;4423412;32;20216;-68
2022/04/13 04:47:00;;;;;;;;;;;;;;;15.01;67.48;100068.53;4413939;32;19970;-68
2022/04/13 04:49:25;;;;;;;;;;;;;;;14.73;68.54;100062.28;4416539;32;20423;-68
2022/04/13 04:51:51;;;;;;;;;;;;;;;14.92;67.97;100072.22;4421827;32;20441;-68
2022/04/13 04:54:18;;;;;;;;;;;;;;;14.84;68.62;100075.88;4424166;32;20001;-68
2022/04/13 04:56:43;;;;;;;;;;;;;;;14.60;69.25;100073.06;4416081;32;20018;-68
2022/04/13 04:59:08;;;;;;;;;;;;;;;14.67;68.81;100084.03;4419791;32;19961;-68
2022/04/13 05:01:34;;;;;;;;;;;;;;;14.61;69.46;100080.31;4424301;32;19992;-68
2022/04/13 05:04:00;;;;;;;;;;;;;;;14.71;69.36;100089.53;4422773;32;19957;-69
2022/04/13 05:06:29;;;;;;;;;;;;;;;14.70;68.59;100093.63;4422649;32;19964;-69
2022/04/13 05:08:55;;;;;;;;;;;;;;;15.07;67.30;100107.00;4419004;32;19960;-69
2022/04/13 05:11:21;;;;;;;;;;;;;;;15.14;67.95;100106.66;4426147;32;19969;-68
2022/04/13 05:13:47;;;;;;;;;;;;;;;15.07;68.39;100109.84;4420721;32;20031;-68
2022/04/13 05:16:13;;;;;;;;;;;;;;;15.31;67.44;100104.94;4424417;32;20049;-68
2022/04/13 05:18:39;;;;;;;;;;;;;;;15.21;66.95;100117.63;4419038;32;19964;-68
2022/04/13 05:21:04;;;;;;;;;;;;;;;15.45;66.60;100121.22;4419841;32;19965;-68
2022/04/13 05:23:30;;;;;;;;;;;;;;;15.64;65.81;100122.59;4418808;32;20299;-68
2022/04/13 05:25:55;;;;;;;;;;;;;;;15.66;66.07;100133.47;4417273;32;19957;-69
2022/04/13 05:28:21;;;;;;;;;;;;;;;15.75;65.35;100139.06;4421220;32;19971;-69
2022/04/13 05:30:47;;;;;;;;;;;;;;;15.79;65.59;100136.78;4421498;32;19968;-68
2022/04/13 05:33:13;;;;;;;;;;;;;;;15.92;65.17;100134.44;4417228;32;20004;-69
2022/04/13 05:35:39;;;;;;;;;;;;;;;15.85;65.31;100129.97;4417362;32;19957;-69
2022/04/13 05:38:05;;;;;;;;;;;;;;;15.70;65.13;100136.88;4419737;32;20009;-69
2022/04/13 05:40:31;;;;;;;;;;;;;;;15.64;66.47;100133.16;4425013;32;19969;-68
2022/04/13 05:42:56;;;;;;;;;;;;;;;15.77;66.22;100139.31;4417518;32;20057;-68
2022/04/13 05:45:22;;;;;;;;;;;;;;;15.86;65.70;100142.84;4419605;32;19973;-69
2022/04/13 05:47:48;;;;;;;;;;;;;;;15.74;65.92;100148.84;4424889;32;19989;-69
2022/04/13 05:50:14;;;;;;;;;;;;;;;15.74;65.72;100146.00;4424774;32;20325;-69
2022/04/13 05:52:40;;;;;;;;;;;;;;;15.62;66.00;100142.16;4416112;32;19985;-69
2022/04/13 05:55:06;;;;;;;;;;;;;;;15.53;66.61;100149.97;4416297;32;20281;-69
2022/04/13 05:57:32;;;;;;;;;;;;;;;15.66;66.37;100148.44;4424896;32;20298;-68
2022/04/13 05:59:58;;;;;;;;;;;;;;;15.93;65.35;100155.87;4421300;32;19953;-69
2022/04/13 06:02:23;;;;;;;;;;;;;;;16.07;65.06;100157.16;4419868;32;19987;-69
2022/04/13 06:04:49;;;;;;;;;;;;;;;16.03;65.29;100163.03;4420412;32;19986;-69
2022/04/13 06:07:16;;;;;;;;;;;;;;;15.95;65.81;100159.00;4421865;32;19942;-69
2022/04/13 06:09:41;;;;;;;;;;;;;;;16.12;65.22;100164.97;4419544;32;19953;-69
2022/04/13 06:12:07;;;;;;;;;;;;;;;16.21;65.05;100168.50;4417676;32;20689;-69
2022/04/13 06:14:33;;;;;;;;;;;;;;;16.22;64.57;100172.87;4418098;32;19989;-69
2022/04/13 06:16:59;;;;;;;;;;;;;;;16.33;64.00;100181.59;4421180;32;20290;-69
2022/04/13 06:19:24;;;;;;;;;;;;;;;16.33;64.39;100180.81;4422952;32;19954;-69
2022/04/13 06:21:51;;;;;;;;;;;;;;;16.45;64.06;100191.12;4416001;32;19953;-69
2022/04/13 06:24:17;;;;;;;;;;;;;;;16.46;64.05;100192.66;4417176;32;20011;-69
2022/04/13 06:26:42;;;;;;;;;;;;;;;16.44;64.33;100200.91;4421939;32;20021;-69
2022/04/13 06:29:08;;;;;;;;;;;;;;;16.43;64.49;100199.31;4418680;32;19979;-69
2022/04/13 06:31:35;;;;;;;;;;;;;;;16.49;63.86;100203.03;4404488;32;19968;-69
2022/04/13 06:34:00;;;;;;;;;;;;;;;16.51;64.40;100211.88;4419918;32;19965;-69
2022/04/13 06:36:26;;;;;;;;;;;;;;;16.50;64.55;100219.59;4419210;32;19969;-69
2022/04/13 06:38:51;;;;;;;;;;;;;;;16.41;64.62;100225.34;4419872;32;19977;-69
2022/04/13 06:41:17;;;;;;;;;;;;;;;16.44;65.03;100226.47;4416874;32;20368;-69
2022/04/13 06:43:42;;;;;;;;;;;;;;;16.54;64.83;100219.41;4419757;32;20355;-69
2022/04/13 06:46:08;;;;;;;;;;;;;;;16.63;64.75;100227.81;4421258;32;19968;-69
2022/04/13 06:48:34;;;;;;;;;;;;;;;16.77;64.30;100232.69;4417931;32;19964;-69
2022/04/13 06:51:00;;;;;;;;;;;;;;;16.96;63.65;100237.63;4404576;32;19958;-69
2022/04/13 06:53:25;;;;;;;;;;;;;;;17.27;63.02;100243.50;4417242;32;19958;-69
2022/04/13 06:55:51;;;;;;;;;;;;;;;17.53;61.33;100257.84;4419828;32;19965;-70
2022/04/13 06:58:18;;;;;;;;;;;;;;;17.69;61.23;100255.22;4420926;32;19954;-69
2022/04/13 07:00:44;;;;;;;;;;;;;;;17.92;60.04;100264.00;4418436;32;19995;-69
2022/04/13 07:03:10;;;;;;;;;;;;;;;18.10;59.96;100266.53;4418968;32;19957;-69
2022/04/13 07:05:35;;;;;;;;;;;;;;;18.32;59.13;100269.59;4418602;32;20049;-70
2022/04/13 07:08:02;;;;;;;;;;;;;;;18.44;58.47;100280.63;4419179;32;20750;-70
2022/04/13 07:10:30;;;;;;;;;;;;;;;18.38;58.95;100276.94;4417896;32;19958;-69
2022/04/13 07:12:56;;;;;;;;;;;;;;;18.43;58.06;100281.13;4417828;32;20018;-69
2022/04/13 07:15:22;;;;;;;;;;;;;;;18.44;58.41;100280.63;4418667;32;19961;-68
2022/04/13 07:17:47;;;;;;;;;;;;;;;18.31;57.97;100280.22;4422555;32;19964;-68
2022/04/13 07:20:14;;;;;;;;;;;;;;;18.08;58.58;100295.50;4415773;32;19985;-70
2022/04/13 07:25:19;;;;;;;;;;;;;;;17.84;59.56;100297.81;3953743;32;15722395;-70
2022/04/13 07:27:46;;;;;;;;;;;;;;;17.51;60.16;100297.38;4420293;32;19945;-70
2022/04/13 07:30:13;;;;;;;;;;;;;;;17.60;59.83;100302.94;4429367;32;20002;-70
2022/04/13 07:32:38;;;;;;;;;;;;;;;17.54;60.34;100300.03;4427908;32;19980;-70
2022/04/13 07:35:04;;;;;;;;;;;;;;;17.32;60.61;100310.28;4424344;32;19957;-70
2022/04/13 07:37:31;;;;;;;;;;;;;;;17.40;59.80;100308.59;4428020;32;19969;-70
2022/04/13 07:39:56;;;;;;;;;;;;;;;17.16;61.15;100308.75;4432536;32;19960;-70
2022/04/13 07:42:22;;;;;;;;;;;;;;;17.32;61.32;100308.22;4431034;32;20378;-70
2022/04/13 07:44:48;;;;;;;;;;;;;;;17.26;61.62;100304.50;4426274;32;20372;-70
2022/04/13 07:47:14;;;;;;;;;;;;;;;17.45;61.91;100319.28;4430264;32;19969;-70
2022/04/13 07:49:41;;;;;;;;;;;;;;;17.69;60.98;100319.88;4427933;32;19950;-70
2022/04/13 07:52:08;;;;;;;;;;;;;;;17.98;59.82;100321.78;4425214;32;19961;-70
2022/04/13 07:54:34;;;;;;;;;;;;;;;18.52;57.81;100333.03;4434004;32;19961;-70
2022/04/13 07:56:59;;;;;;;;;;;;;;;18.65;56.41;100324.09;4422817;32;20023;-69
2022/04/13 07:59:25;;;;;;;;;;;;;;;18.57;56.72;100322.97;4421226;32;19965;-70
2022/04/13 08:01:51;;;;;;;;;;;;;;;19.07;56.04;100322.13;4426324;32;19953;-70
2022/04/13 08:04:16;;;;;;;;;;;;;;;18.65;56.11;100326.97;4432767;32;19961;-69
2022/04/13 08:06:42;;;;;;;;;;;;;;;18.83;55.74;100341.63;4427880;32;19984;-69
2022/04/13 08:09:07;;;;;;;;;;;;;;;19.03;55.28;100344.41;4427650;32;20046;-69
2022/04/13 08:11:33;;;;;;;;;;;;;;;19.22;54.43;100342.72;4429093;32;20329;-69
2022/04/13 08:14:00;;;;;;;;;;;;;;;19.20;54.17;100348.16;4424892;32;19965;-69
2022/04/13 08:16:25;;;;;;;;;;;;;;;18.88;54.23;100348.66;4429623;32;19949;-69
2022/04/13 08:18:51;;;;;;;;;;;;;;;18.50;55.44;100352.69;4433741;32;20023;-70
2022/04/13 08:21:16;;;;;;;;;;;;;;;18.50;55.44;100349.84;4407537;32;19961;-70
2022/04/13 08:23:42;;;;;;;;;;;;;;;18.18;55.89;100353.06;4426323;32;20027;-71
2022/04/13 08:26:08;;;;;;;;;;;;;;;18.34;55.79;100346.78;4429809;32;19999;-71
2022/04/13 08:28:33;;;;;;;;;;;;;;;18.74;55.46;100360.97;4430735;32;20393;-70
2022/04/13 08:30:59;;;;;;;;;;;;;;;18.61;55.13;100358.53;4429780;32;19953;-69
2022/04/13 08:33:25;;;;;;;;;;;;;;;18.61;54.72;100358.53;4428197;32;19985;-69
2022/04/13 08:35:50;;;;;;;;;;;;;;;18.69;54.49;100370.25;4421877;32;20022;-70
2022/04/13 08:38:16;;;;;;;;;;;;;;;18.81;54.07;100369.84;4420393;32;19965;-69
2022/04/13 08:40:46;;;;;;;;;;;;;;;18.86;53.30;100377.69;4420721;32;20387;-69
2022/04/13 08:43:11;;;;;;;;;;;;;;;18.73;53.19;100373.66;4414790;32;20294;-69
2022/04/13 08:45:46;;;;;;;;;;;;;;;18.90;53.92;100383.16;4417338;32;19946;-69
2022/04/13 08:48:12;;;;;;;;;;;;;;;18.67;54.30;100381.38;4419427;32;20485;-69
2022/04/13 08:50:38;;;;;;;;;;;;;;;18.96;54.33;100395.41;4414793;32;19985;-69
2022/04/13 08:53:06;;;;;;;;;;;;;;;18.82;55.38;100399.16;4415715;32;20087;-69
2022/04/13 08:55:32;;;;;;;;;;;;;;;18.84;54.03;100402.28;4416552;32;20331;-73
2022/04/13 08:58:19;;;;;;;;;;;;;;;18.87;54.17;100407.00;4414364;32;19984;-69
2022/04/13 09:00:48;;;;;;;;;;;;;;;18.68;54.47;100417.94;4419714;32;19981;-69
2022/04/13 09:03:38;;;;;;;;;;;;;;;18.94;53.29;100427.28;4420229;32;20535;-69
2022/04/13 09:06:23;;;;;;;;;;;;;;;18.84;52.78;100422.25;4419950;32;19999;-69
2022/04/13 09:09:14;;;;;;;;;;;;;;;18.77;53.34;100426.31;4413140;32;20318;-69
2022/04/13 09:11:58;;;;;;;;;;;;;;;18.50;54.77;100431.72;4413427;32;19968;-69
2022/04/13 09:14:27;;;;;;;;;;;;;;;18.24;55.07;100428.00;4418931;32;19953;-69
2022/04/13 09:17:12;;;;;;;;;;;;;;;17.93;55.59;100422.94;4413222;32;20035;-69
2022/04/13 09:19:57;;;;;;;;;;;;;;;18.54;54.17;100440.81;4417630;32;20009;-70
2022/04/13 09:22:42;;;;;;;;;;;;;;;18.69;53.25;100433.75;4415639;32;19975;-69
2022/04/13 09:25:26;;;;;;;;;;;;;;;18.87;53.52;100435.50;4410743;32;20031;-70
2022/04/13 09:27:53;;;;;;;;;;;;;;;19.41;52.23;100438.09;4418693;32;20341;-69
2022/04/13 09:30:21;;;;;;;;;;;;;;;19.80;50.61;100433.44;4413976;32;19953;-70
2022/04/13 09:32:46;;;;;;;;;;;;;;;20.28;48.34;100447.00;4417257;32;19997;-70
2022/04/13 09:35:12;;;;;;;;;;;;;;;20.07;49.44;100442.69;4412932;32;19953;-69
2022/04/13 09:37:38;;;;;;;;;;;;;;;20.18;49.67;100445.62;4411477;32;19968;-69
2022/04/13 09:40:03;;;;;;;;;;;;;;;20.38;48.07;100434.03;4413994;32;19985;-69
2022/04/13 09:42:29;;;;;;;;;;;;;;;20.51;47.20;100438.00;4416190;32;19972;-69
2022/04/13 09:44:56;;;;;;;;;;;;;;;20.24;47.14;100438.66;4413357;32;19989;-70
2022/04/13 09:47:23;;;;;;;;;;;;;;;20.24;47.37;100438.66;4420815;32;20052;-69
2022/04/13 09:49:53;;;;;;;;;;;;;;;19.93;47.46;100449.34;4415052;32;19965;-69
2022/04/13 09:52:39;;;;;;;;;;;;;;;19.90;47.89;100456.06;4417393;32;20240;-69
2022/04/13 09:55:05;;;;;;;;;;;;;;;19.64;47.73;100456.19;4417994;32;19957;-69
2022/04/13 09:57:32;;;;;;;;;;;;;;;19.34;47.79;100444.28;4418946;32;19965;-69
2022/04/13 09:59:59;;;;;;;;;;;;;;;18.97;47.73;100468.25;4413432;32;20069;-69
2022/04/13 10:02:40;;;;;;;;;;;;;;;18.88;48.60;100465.56;4413120;32;20369;-69
2022/04/13 10:05:07;;;;;;;;;;;;;;;19.33;47.71;100467.59;4417881;32;19993;-69
2022/04/13 10:07:33;;;;;;;;;;;;;;;19.75;46.76;100470.53;4416574;32;20004;-71
2022/04/13 10:09:59;;;;;;;;;;;;;;;20.66;45.08;100480.66;4414740;32;20336;-70
2022/04/13 10:12:24;;;;;;;;;;;;;;;20.97;44.00;100475.59;4413989;32;19980;-70
2022/04/13 10:14:50;;;;;;;;;;;;;;;21.41;42.76;100478.50;4417145;32;20035;-71
2022/04/13 10:17:16;;;;;;;;;;;;;;;21.69;41.75;100479.28;4420620;32;20015;-71
2022/04/13 10:19:43;;;;;;;;;;;;;;;22.03;41.25;100476.41;4412330;32;19993;-71
2022/04/13 10:22:09;;;;;;;;;;;;;;;22.65;40.10;100490.06;4412629;32;20318;-71
2022/04/13 10:24:35;;;;;;;;;;;;;;;22.73;38.48;100496.81;4415279;32;19956;-71
2022/04/13 10:29:45;;;;;;;;;;;;;;;22.07;39.99;100496.97;3952717;32;15777623;-71
2022/04/13 10:32:13;;;;;;;;;;;;;;;22.07;39.99;100496.97;4424477;32;19996;-71
2022/04/13 10:34:39;;;;;;;;;;;;;;;21.50;39.78;100501.16;4426946;32;20000;-71
2022/04/13 10:37:05;;;;;;;;;;;;;;;21.42;39.81;100500.09;4429646;32;19972;-71
2022/04/13 10:39:31;;;;;;;;;;;;;;;21.52;40.77;100498.56;4427658;32;20069;-71
2022/04/13 10:41:57;;;;;;;;;;;;;;;21.78;39.71;100501.19;4434037;32;19993;-71
2022/04/13 10:44:41;;;;;;;;;;;;;;;21.47;40.29;100504.28;4432140;32;19953;-71
2022/04/13 10:47:07;;;;;;;;;;;;;;;22.33;39.17;100520.41;4429028;32;19949;-71
2022/04/13 10:49:38;;;;;;;;;;;;;;;22.33;38.51;100515.44;4430216;32;19999;-71
2022/04/13 10:52:08;;;;;;;;;;;;;;;23.19;37.27;100523.44;4429874;32;19953;-71
2022/04/13 10:54:36;;;;;;;;;;;;;;;23.90;36.38;100523.47;4429964;32;19968;-71
2022/04/13 10:57:04;;;;;;;;;;;;;;;24.22;34.92;100525.25;4428240;32;19976;-71
2022/04/13 10:59:32;;;;;;;;;;;;;;;24.09;34.96;100533.75;4427954;32;20022;-71
2022/04/13 11:01:59;;;;;;;;;;;;;;;24.37;34.52;100540.00;4431987;32;19992;-71
2022/04/13 11:04:27;;;;;;;;;;;;;;;24.39;34.29;100543.09;4430493;32;20254;-71
2022/04/13 11:06:53;;;;;;;;;;;;;;;24.24;34.46;100542.72;4425304;32;20002;-72
2022/04/13 11:09:25;;;;;;;;;;;;;;;23.47;35.85;100543.38;4430815;32;19965;-71
2022/04/13 11:11:51;;;;;;;;;;;;;;;22.93;36.74;100548.09;4431012;32;19972;-71
2022/04/13 11:14:20;;;;;;;;;;;;;;;22.37;38.04;100540.97;4422627;32;19972;-71
2022/04/13 11:16:47;;;;;;;;;;;;;;;22.53;38.28;100551.63;4427194;32;19954;-71
2022/04/13 11:27:10;;;;;;;;;;;;;;;24.75;34.32;100544.56;3954184;32;15722287;-70
2022/04/13 11:29:39;;;;;;;;;;;;;;;24.75;34.32;100544.56;4434300;32;20327;-71
2022/04/13 11:32:14;;;;;;;;;;;;;;;24.11;34.53;100551.22;4431029;32;19965;-70
2022/04/13 11:37:19;;;;;;;;;;;;;;;22.85;37.03;100561.44;3967515;32;15723315;-71
2022/04/13 11:39:46;;;;;;;;;;;;;;;22.85;37.03;100561.44;4428325;32;19986;-71
2022/04/13 11:45:04;;;;;;;;;;;;;;;22.65;37.42;100558.91;3954562;32;15723606;-71
2022/04/13 11:52:50;;;;;;;;;;;;;;;25.02;33.64;100565.69;3942523;32;15727426;-71
2022/04/13 12:00:44;;;;;;;;;;;;;;;25.10;33.18;100575.28;3952404;32;15722641;-70
2022/04/13 12:03:12;;;;;;;;;;;;;;;25.10;33.18;100575.28;4431049;32;20259;-71
2022/04/13 12:05:38;;;;;;;;;;;;;;;24.98;33.39;100570.97;4427449;32;19964;-71
2022/04/13 12:08:12;;;;;;;;;;;;;;;24.78;34.27;100575.13;4427780;32;20322;-71
2022/04/13 12:10:38;;;;;;;;;;;;;;;25.03;33.47;100573.00;4425762;32;20018;-71
2022/04/13 12:13:04;;;;;;;;;;;;;;;25.64;32.60;100564.28;4427586;32;20013;-71
2022/04/13 12:15:50;;;;;;;;;;;;;;;25.23;33.20;100570.38;4425440;32;20526;-71
2022/04/13 12:18:16;;;;;;;;;;;;;;;24.62;33.67;100567.44;4431207;32;19998;-71
2022/04/13 12:20:42;;;;;;;;;;;;;;;25.10;32.42;100569.50;4429880;32;19949;-70
2022/04/13 12:23:15;;;;;;;;;;;;;;;25.56;32.11;100560.50;4428837;32;19999;-71
2022/04/13 12:25:41;;;;;;;;;;;;;;;25.06;33.06;100574.78;4428423;32;19997;-71
2022/04/13 12:28:08;;;;;;;;;;;;;;;23.92;34.63;100570.47;4431465;32;20233;-71
2022/04/13 12:30:34;;;;;;;;;;;;;;;23.27;34.92;100564.66;4432056;32;20375;-71
2022/04/13 12:33:10;;;;;;;;;;;;;;;23.17;35.46;100574.84;4425196;32;20351;-71
2022/04/13 12:41:05;;;;;;;;;;;;;;;24.91;34.25;100597.50;3955833;31;15717550;-71
2022/04/13 12:43:31;;;;;;;;;;;;;;;24.91;34.25;100597.50;4434323;32;19961;-71
2022/04/13 12:45:57;;;;;;;;;;;;;;;23.74;35.75;100596.97;4433117;32;19953;-71
2022/04/13 12:48:24;;;;;;;;;;;;;;;23.14;36.99;100592.38;4435437;32;20350;-71
2022/04/13 12:50:58;;;;;;;;;;;;;;;22.63;38.54;100602.47;4434428;32;20750;-71
2022/04/13 12:53:23;;;;;;;;;;;;;;;22.19;38.94;100607.44;4434676;32;20004;-71
2022/04/13 12:55:51;;;;;;;;;;;;;;;21.93;39.56;100601.97;4436184;32;20514;-71
2022/04/13 12:58:16;;;;;;;;;;;;;;;21.63;40.26;100603.75;4435761;32;20327;-71
2022/04/13 13:00:50;;;;;;;;;;;;;;;21.47;40.54;100595.91;4433500;32;20435;-71
2022/04/13 13:03:17;;;;;;;;;;;;;;;21.56;40.47;100598.53;4435406;32;19959;-71
2022/04/13 13:05:42;;;;;;;;;;;;;;;21.48;40.84;100597.47;4435242;32;19964;-71
2022/04/13 13:08:08;;;;;;;;;;;;;;;21.33;40.38;100612.00;4434616;32;20292;-71
2022/04/13 13:10:34;;;;;;;;;;;;;;;21.21;40.56;100610.44;4437272;32;19993;-71
2022/04/13 13:13:18;;;;;;;;;;;;;;;20.94;41.21;100619.66;4437400;32;19980;-71